Time;durP1;ratioP1;P1;durP2;ratioP2;P2;SDS_P1;SDS_P2;PMS_P1;PMS_P2;Temp;Humidity;BMP_temperature;BMP_pressure;BME280_temperature;BME280_humidity;BME280_pressure;Samples;Min_cycle;Max_cycle;Signal;HPM_P1;HPM_P2
2024/04/18 00:01:12;;;;;;;7.95;4.65;;;;;;;;;;5364164;26;25085;-63
2024/04/18 00:03:38;;;;;;;5.78;5.20;;;;;;;;;;5361317;26;25056;-63
2024/04/18 00:06:04;;;;;;;8.15;6.07;;;;;;;;;;5364265;26;25042;-63
2024/04/18 00:08:30;;;;;;;8.45;5.00;;;;;;;;;;5348805;26;25056;-65
2024/04/18 00:10:58;;;;;;;6.57;5.15;;;;;;;;;;5367240;26;25044;-64
2024/04/18 00:13:24;;;;;;;7.47;5.53;;;;;;;;;;5365096;26;25169;-63
2024/04/18 00:15:50;;;;;;;8.63;5.43;;;;;;;;;;5362153;26;25037;-63
2024/04/18 00:18:16;;;;;;;8.68;5.90;;;;;;;;;;5366267;26;25057;-64
2024/04/18 00:20:42;;;;;;;7.40;5.57;;;;;;;;;;5353238;26;25135;-63
2024/04/18 00:23:08;;;;;;;10.43;5.65;;;;;;;;;;5357939;26;25045;-63
2024/04/18 00:25:33;;;;;;;8.63;6.03;;;;;;;;;;5364889;26;25054;-65
2024/04/18 00:27:59;;;;;;;12.52;6.15;;;;;;;;;;5329673;26;25062;-63
2024/04/18 00:30:25;;;;;;;9.23;5.65;;;;;;;;;;5363003;26;25067;-63
2024/04/18 00:32:51;;;;;;;8.85;5.72;;;;;;;;;;5362237;26;25059;-63
2024/04/18 00:35:17;;;;;;;8.00;6.28;;;;;;;;;;5352649;26;25102;-65
2024/04/18 00:37:44;;;;;;;8.32;5.60;;;;;;;;;;5364261;26;25051;-61
2024/04/18 00:40:10;;;;;;;9.10;5.95;;;;;;;;;;5353262;26;25135;-65
2024/04/18 00:42:37;;;;;;;10.35;5.75;;;;;;;;;;5332542;26;25064;-66
2024/04/18 00:45:03;;;;;;;9.25;6.10;;;;;;;;;;5358687;26;25060;-62
2024/04/18 00:47:29;;;;;;;11.02;6.35;;;;;;;;;;5354933;26;25049;-64
2024/04/18 00:49:55;;;;;;;7.38;5.53;;;;;;;;;;5367933;26;25125;-64
2024/04/18 00:52:21;;;;;;;8.75;5.68;;;;;;;;;;5366348;26;25064;-63
2024/04/18 00:54:48;;;;;;;7.32;5.47;;;;;;;;;;5362350;26;25043;-63
2024/04/18 00:57:14;;;;;;;6.30;5.30;;;;;;;;;;5367920;26;25044;-64
2024/04/18 00:59:41;;;;;;;6.95;5.63;;;;;;;;;;5370950;26;25040;-62
2024/04/18 01:02:07;;;;;;;8.98;5.47;;;;;;;;;;5365176;26;25063;-63
2024/04/18 01:04:33;;;;;;;6.43;5.53;;;;;;;;;;5357558;26;25061;-64
2024/04/18 01:06:59;;;;;;;8.18;6.50;;;;;;;;;;5357704;26;25109;-64
2024/04/18 01:09:25;;;;;;;8.82;7.40;;;;;;;;;;5363678;26;25157;-64
2024/04/18 01:11:51;;;;;;;8.18;6.63;;;;;;;;;;5331077;26;25138;-63
2024/04/18 01:14:17;;;;;;;8.68;7.07;;;;;;;;;;5359047;26;25077;-64
2024/04/18 01:16:43;;;;;;;8.05;6.60;;;;;;;;;;5329944;26;25061;-64
2024/04/18 01:19:12;;;;;;;11.18;7.43;;;;;;;;;;5361472;26;25082;-64
2024/04/18 01:21:38;;;;;;;11.35;7.65;;;;;;;;;;5353573;26;25143;-64
2024/04/18 01:24:04;;;;;;;15.50;8.55;;;;;;;;;;5323153;26;25051;-66
2024/04/18 01:26:30;;;;;;;9.60;7.97;;;;;;;;;;5357477;26;25042;-66
2024/04/18 01:28:56;;;;;;;13.80;8.43;;;;;;;;;;5360732;26;25051;-63
2024/04/18 01:31:22;;;;;;;11.73;8.65;;;;;;;;;;5356732;26;25068;-64
2024/04/18 01:33:48;;;;;;;13.85;8.98;;;;;;;;;;5373207;26;25109;-64
2024/04/18 01:36:14;;;;;;;11.32;7.88;;;;;;;;;;5359034;26;25064;-66
2024/04/18 01:38:40;;;;;;;10.30;8.65;;;;;;;;;;5367749;26;25063;-67
2024/04/18 01:41:06;;;;;;;10.90;9.25;;;;;;;;;;5362820;26;25109;-65
2024/04/18 01:43:32;;;;;;;12.18;9.35;;;;;;;;;;5371855;26;25056;-64
2024/04/18 01:45:58;;;;;;;12.63;9.23;;;;;;;;;;5352435;26;25145;-63
2024/04/18 01:48:24;;;;;;;11.18;9.68;;;;;;;;;;5357777;26;25048;-63
2024/04/18 01:50:50;;;;;;;11.80;8.63;;;;;;;;;;5370334;26;25069;-63
2024/04/18 01:53:16;;;;;;;12.55;10.40;;;;;;;;;;5366262;26;25059;-65
2024/04/18 01:55:42;;;;;;;13.00;10.20;;;;;;;;;;5361793;26;25105;-64
2024/04/18 01:58:08;;;;;;;11.57;10.18;;;;;;;;;;5360736;26;25051;-63
2024/04/18 02:00:34;;;;;;;12.85;9.82;;;;;;;;;;5363570;26;25037;-64
2024/04/18 02:03:00;;;;;;;13.63;9.98;;;;;;;;;;5364755;26;25053;-63
2024/04/18 02:05:26;;;;;;;13.23;10.75;;;;;;;;;;5362029;26;25053;-61
2024/04/18 02:07:52;;;;;;;13.40;10.48;;;;;;;;;;5376837;26;25054;-63
2024/04/18 02:10:18;;;;;;;17.38;10.98;;;;;;;;;;5365152;26;25045;-63
2024/04/18 02:12:44;;;;;;;16.27;9.98;;;;;;;;;;5368112;26;25073;-64
2024/04/18 02:15:10;;;;;;;16.23;11.48;;;;;;;;;;5365817;26;25052;-64
2024/04/18 02:17:36;;;;;;;12.05;10.32;;;;;;;;;;5368562;26;25045;-65
2024/04/18 02:20:03;;;;;;;14.02;9.50;;;;;;;;;;5330702;26;25061;-63
2024/04/18 02:22:29;;;;;;;14.30;10.20;;;;;;;;;;5365056;26;25033;-62
2024/04/18 02:25:08;;;;;;;18.23;11.57;;;;;;;;;;5322408;26;25050;-63
2024/04/18 02:27:35;;;;;;;12.55;10.50;;;;;;;;;;5357257;26;25067;-64
2024/04/18 02:30:01;;;;;;;14.05;10.18;;;;;;;;;;5358677;26;25358;-62
2024/04/18 02:32:26;;;;;;;16.42;11.90;;;;;;;;;;5356200;26;25044;-64
2024/04/18 02:34:52;;;;;;;16.50;11.90;;;;;;;;;;5368250;26;25056;-62
2024/04/18 02:37:18;;;;;;;17.80;12.55;;;;;;;;;;5369998;26;25050;-65
2024/04/18 02:39:44;;;;;;;17.40;12.30;;;;;;;;;;5366172;26;25042;-64
2024/04/18 02:42:10;;;;;;;17.77;13.55;;;;;;;;;;5362612;26;25065;-65
2024/04/18 02:44:36;;;;;;;17.83;13.30;;;;;;;;;;5355193;26;25062;-63
2024/04/18 02:47:02;;;;;;;16.75;12.93;;;;;;;;;;5354911;26;25056;-63
2024/04/18 02:49:28;;;;;;;20.83;14.82;;;;;;;;;;5368694;26;25046;-66
2024/04/18 02:51:55;;;;;;;21.05;14.63;;;;;;;;;;5368954;26;25052;-64
2024/04/18 02:54:21;;;;;;;20.33;15.85;;;;;;;;;;5323050;26;25075;-64
2024/04/18 02:56:47;;;;;;;21.33;15.95;;;;;;;;;;5368304;26;25129;-64
2024/04/18 02:59:13;;;;;;;20.73;15.30;;;;;;;;;;5363377;26;25060;-64
2024/04/18 03:01:39;;;;;;;20.08;16.13;;;;;;;;;;5366480;26;25058;-63
2024/04/18 03:04:04;;;;;;;21.08;16.80;;;;;;;;;;5373624;26;25123;-63
2024/04/18 03:06:30;;;;;;;24.58;17.98;;;;;;;;;;5367399;26;25052;-66
2024/04/18 03:08:56;;;;;;;27.73;18.08;;;;;;;;;;5368145;26;25043;-64
2024/04/18 03:11:22;;;;;;;21.27;17.40;;;;;;;;;;5370015;26;25044;-63
2024/04/18 03:13:48;;;;;;;23.15;17.17;;;;;;;;;;5372217;21;25137;-67
2024/04/18 03:16:15;;;;;;;22.25;17.67;;;;;;;;;;5379220;26;25083;-67
2024/04/18 03:18:44;;;;;;;26.40;18.60;;;;;;;;;;5369022;26;25058;-67
2024/04/18 03:21:10;;;;;;;28.40;19.45;;;;;;;;;;5374499;26;25057;-66
2024/04/18 03:23:37;;;;;;;24.23;18.25;;;;;;;;;;5367837;26;25049;-68
2024/04/18 03:26:03;;;;;;;21.40;17.63;;;;;;;;;;5377430;26;25144;-67
2024/04/18 03:28:29;;;;;;;25.02;16.83;;;;;;;;;;5374237;26;25053;-66
2024/04/18 03:30:55;;;;;;;21.67;17.02;;;;;;;;;;5372187;26;25046;-67
2024/04/18 03:33:21;;;;;;;23.00;16.85;;;;;;;;;;5370969;26;25058;-69
2024/04/18 03:35:47;;;;;;;24.63;17.35;;;;;;;;;;5374233;26;25042;-67
2024/04/18 03:38:13;;;;;;;22.30;17.45;;;;;;;;;;5373176;26;25047;-67
2024/04/18 03:40:39;;;;;;;22.17;16.48;;;;;;;;;;5371322;26;25064;-67
2024/04/18 03:43:05;;;;;;;20.85;16.30;;;;;;;;;;5373553;26;25034;-68
2024/04/18 03:45:31;;;;;;;21.27;17.02;;;;;;;;;;5376310;26;25049;-69
2024/04/18 03:47:57;;;;;;;21.63;15.63;;;;;;;;;;5363705;26;25089;-69
2024/04/18 03:50:23;;;;;;;16.65;12.30;;;;;;;;;;5369505;26;25055;-67
2024/04/18 03:52:49;;;;;;;16.42;12.75;;;;;;;;;;5376204;26;25063;-68
2024/04/18 03:55:15;;;;;;;14.23;11.13;;;;;;;;;;5371454;26;25046;-66
2024/04/18 03:57:41;;;;;;;14.23;10.70;;;;;;;;;;5371682;26;25048;-68
2024/04/18 04:00:07;;;;;;;12.75;10.20;;;;;;;;;;5379403;26;25049;-69
2024/04/18 04:02:33;;;;;;;13.90;9.50;;;;;;;;;;5368303;26;25044;-67
2024/04/18 04:05:00;;;;;;;11.93;9.40;;;;;;;;;;5354631;26;25057;-68
2024/04/18 04:07:26;;;;;;;14.80;8.68;;;;;;;;;;5373847;26;25052;-68
2024/04/18 04:09:52;;;;;;;13.10;9.55;;;;;;;;;;5376470;26;25006;-67
2024/04/18 04:12:17;;;;;;;9.40;7.72;;;;;;;;;;5365969;26;25045;-67
2024/04/18 04:14:43;;;;;;;10.02;8.43;;;;;;;;;;5378515;26;25063;-67
2024/04/18 04:17:09;;;;;;;15.57;10.18;;;;;;;;;;5370657;26;25044;-67
2024/04/18 04:19:35;;;;;;;14.63;9.68;;;;;;;;;;5376626;26;25060;-67
2024/04/18 04:22:01;;;;;;;11.88;9.75;;;;;;;;;;5379835;26;25050;-67
2024/04/18 04:24:27;;;;;;;12.32;9.60;;;;;;;;;;5373627;26;25081;-67
2024/04/18 04:26:53;;;;;;;11.10;9.27;;;;;;;;;;5383404;26;25062;-66
2024/04/18 04:29:20;;;;;;;10.65;8.10;;;;;;;;;;5386740;26;25078;-66
2024/04/18 04:31:46;;;;;;;10.07;8.27;;;;;;;;;;5367489;26;25098;-67
2024/04/18 04:34:12;;;;;;;12.85;9.80;;;;;;;;;;5375857;26;25122;-66
2024/04/18 04:36:38;;;;;;;9.57;7.97;;;;;;;;;;5371990;26;25042;-67
2024/04/18 04:39:05;;;;;;;9.50;8.20;;;;;;;;;;5374416;26;25072;-67
2024/04/18 04:41:31;;;;;;;13.48;8.52;;;;;;;;;;5361316;26;25065;-68
2024/04/18 04:43:57;;;;;;;14.93;9.00;;;;;;;;;;5371708;26;25069;-67
2024/04/18 04:46:23;;;;;;;10.35;8.40;;;;;;;;;;5370551;26;25061;-67
2024/04/18 04:48:50;;;;;;;10.70;8.10;;;;;;;;;;5374210;26;25114;-67
2024/04/18 04:51:16;;;;;;;10.63;7.57;;;;;;;;;;5380396;26;25063;-67
2024/04/18 04:53:42;;;;;;;13.55;7.68;;;;;;;;;;5364185;26;25057;-68
2024/04/18 04:56:08;;;;;;;9.30;6.93;;;;;;;;;;5374012;26;25108;-68
2024/04/18 04:58:34;;;;;;;12.23;8.57;;;;;;;;;;5369127;26;25045;-67
2024/04/18 05:01:00;;;;;;;8.93;7.07;;;;;;;;;;5375016;26;25041;-68
2024/04/18 05:03:26;;;;;;;12.55;8.13;;;;;;;;;;5375397;26;25074;-67
2024/04/18 05:05:52;;;;;;;10.18;8.27;;;;;;;;;;5370365;26;25041;-69
2024/04/18 05:08:18;;;;;;;13.30;8.65;;;;;;;;;;5375582;26;25109;-67
2024/04/18 05:10:45;;;;;;;14.38;7.85;;;;;;;;;;5378159;26;25058;-67
2024/04/18 05:13:15;;;;;;;12.02;8.55;;;;;;;;;;5372793;26;25084;-68
2024/04/18 05:15:41;;;;;;;9.60;7.60;;;;;;;;;;5369513;26;25065;-67
2024/04/18 05:18:09;;;;;;;11.35;7.40;;;;;;;;;;5379836;26;25045;-66
2024/04/18 05:20:36;;;;;;;8.18;6.47;;;;;;;;;;5382360;26;25035;-66
2024/04/18 05:23:04;;;;;;;13.02;7.68;;;;;;;;;;5387017;26;25046;-66
2024/04/18 05:25:30;;;;;;;12.90;6.80;;;;;;;;;;5386705;26;25054;-66
2024/04/18 05:28:09;;;;;;;13.80;6.68;;;;;;;;;;5384963;26;25112;-67
2024/04/18 05:33:20;;;;;;;10.35;6.18;;;;;;;;;;5371159;26;25072;-67
2024/04/18 05:35:46;;;;;;;13.40;7.15;;;;;;;;;;5372446;26;25031;-66
2024/04/18 05:38:12;;;;;;;13.20;7.20;;;;;;;;;;5370665;26;25051;-67
2024/04/18 05:40:38;;;;;;;12.95;7.20;;;;;;;;;;5375245;26;25118;-67
2024/04/18 05:43:04;;;;;;;11.05;6.47;;;;;;;;;;5372501;26;25037;-68
2024/04/18 05:45:30;;;;;;;9.82;6.10;;;;;;;;;;5382148;26;25071;-67
2024/04/18 05:47:56;;;;;;;9.73;6.55;;;;;;;;;;5370955;26;25038;-67
2024/04/18 05:50:22;;;;;;;12.02;7.05;;;;;;;;;;5375274;26;25114;-68
2024/04/18 05:52:48;;;;;;;16.55;7.15;;;;;;;;;;5371507;26;25061;-67
2024/04/18 05:55:14;;;;;;;11.88;6.97;;;;;;;;;;5377708;26;25105;-67
2024/04/18 05:57:40;;;;;;;12.02;6.80;;;;;;;;;;5367935;26;25133;-67
2024/04/18 06:00:06;;;;;;;12.60;6.25;;;;;;;;;;5374348;26;25050;-69
2024/04/18 06:02:32;;;;;;;12.57;6.30;;;;;;;;;;5366488;26;25113;-67
2024/04/18 06:04:58;;;;;;;8.70;6.07;;;;;;;;;;5376120;26;25059;-67
2024/04/18 06:07:24;;;;;;;10.10;6.53;;;;;;;;;;5370711;26;25042;-67
2024/04/18 06:09:50;;;;;;;8.30;5.75;;;;;;;;;;5372219;26;25094;-66
2024/04/18 06:12:17;;;;;;;11.98;7.30;;;;;;;;;;5376122;26;25140;-68
2024/04/18 06:14:43;;;;;;;12.98;6.18;;;;;;;;;;5369750;26;25057;-68
2024/04/18 06:17:09;;;;;;;10.73;6.35;;;;;;;;;;5371377;26;25060;-68
2024/04/18 06:19:35;;;;;;;8.93;6.10;;;;;;;;;;5373088;26;25028;-68
2024/04/18 06:22:01;;;;;;;11.48;5.55;;;;;;;;;;5377827;26;25066;-67
2024/04/18 06:24:27;;;;;;;11.57;6.10;;;;;;;;;;5372407;26;25045;-67
2024/04/18 06:26:54;;;;;;;10.38;6.50;;;;;;;;;;5365679;26;25069;-68
2024/04/18 06:29:20;;;;;;;10.52;5.68;;;;;;;;;;5392519;26;25048;-68
2024/04/18 06:31:46;;;;;;;9.48;5.28;;;;;;;;;;5371615;26;25064;-67
2024/04/18 06:34:12;;;;;;;12.15;5.63;;;;;;;;;;5372767;26;25096;-67
2024/04/18 06:36:38;;;;;;;12.75;4.88;;;;;;;;;;5364576;26;25052;-68
2024/04/18 06:39:05;;;;;;;10.90;5.18;;;;;;;;;;5368773;26;25062;-68
2024/04/18 06:41:31;;;;;;;10.50;4.53;;;;;;;;;;5361358;26;25130;-69
2024/04/18 06:43:57;;;;;;;10.27;5.10;;;;;;;;;;5365477;26;25055;-69
2024/04/18 06:46:23;;;;;;;8.63;4.85;;;;;;;;;;5371499;26;25075;-68
2024/04/18 06:48:49;;;;;;;14.27;5.78;;;;;;;;;;5383339;26;25042;-68
2024/04/18 06:51:15;;;;;;;9.18;5.43;;;;;;;;;;5365688;26;25062;-68
2024/04/18 06:53:41;;;;;;;13.40;5.68;;;;;;;;;;5372733;26;25042;-68
2024/04/18 06:56:07;;;;;;;9.40;4.75;;;;;;;;;;5372228;26;25040;-68
2024/04/18 06:58:33;;;;;;;12.65;4.90;;;;;;;;;;5373189;26;25067;-65
2024/04/18 07:00:59;;;;;;;12.50;5.07;;;;;;;;;;5364018;26;25131;-68
2024/04/18 07:03:25;;;;;;;12.38;4.68;;;;;;;;;;5371159;26;25108;-68
2024/04/18 07:05:51;;;;;;;8.43;4.03;;;;;;;;;;5371830;26;25043;-69
2024/04/18 07:08:17;;;;;;;9.70;4.50;;;;;;;;;;5371502;26;25063;-67
2024/04/18 07:10:43;;;;;;;10.80;6.13;;;;;;;;;;5373631;26;25030;-67
2024/04/18 07:13:09;;;;;;;7.75;3.95;;;;;;;;;;5372259;26;25044;-69
2024/04/18 07:15:35;;;;;;;10.27;3.42;;;;;;;;;;5371027;26;25040;-68
2024/04/18 07:18:01;;;;;;;4.32;2.63;;;;;;;;;;5372204;26;25034;-69
2024/04/18 07:20:27;;;;;;;5.18;3.40;;;;;;;;;;5372216;26;25037;-68
2024/04/18 07:22:53;;;;;;;12.80;3.58;;;;;;;;;;5368714;26;25045;-67
2024/04/18 07:25:19;;;;;;;6.45;3.15;;;;;;;;;;5370341;26;25035;-69
2024/04/18 07:27:45;;;;;;;8.05;2.78;;;;;;;;;;5373167;26;25056;-69
2024/04/18 07:30:12;;;;;;;5.10;2.55;;;;;;;;;;5370830;26;25104;-69
2024/04/18 07:32:38;;;;;;;6.90;2.90;;;;;;;;;;5375744;26;25079;-68
2024/04/18 07:35:04;;;;;;;7.63;3.13;;;;;;;;;;5390740;26;25062;-69
2024/04/18 07:37:30;;;;;;;6.57;3.03;;;;;;;;;;5391754;26;25061;-68
2024/04/18 07:39:56;;;;;;;6.15;2.88;;;;;;;;;;5387880;26;25048;-68
2024/04/18 07:42:22;;;;;;;7.40;2.92;;;;;;;;;;5377482;26;25093;-69
2024/04/18 07:44:48;;;;;;;9.05;3.03;;;;;;;;;;5374999;26;25089;-69
2024/04/18 07:47:14;;;;;;;6.95;2.15;;;;;;;;;;5371703;26;25047;-68
2024/04/18 07:49:40;;;;;;;6.43;2.10;;;;;;;;;;5365525;26;25054;-68
2024/04/18 07:52:10;;;;;;;4.97;2.33;;;;;;;;;;5364317;26;25051;-68
2024/04/18 07:54:36;;;;;;;5.53;2.10;;;;;;;;;;5362129;26;25175;-68
2024/04/18 07:57:02;;;;;;;5.80;2.28;;;;;;;;;;5372010;26;25031;-69
2024/04/18 07:59:28;;;;;;;9.90;1.98;;;;;;;;;;5370341;26;25059;-69
2024/04/18 08:01:54;;;;;;;6.50;2.08;;;;;;;;;;5369483;26;25060;-70
2024/04/18 08:04:20;;;;;;;9.70;2.20;;;;;;;;;;5372771;26;25124;-69
2024/04/18 08:06:46;;;;;;;8.05;2.05;;;;;;;;;;5366229;26;25046;-69
2024/04/18 08:09:12;;;;;;;7.20;1.95;;;;;;;;;;5360775;26;25038;-69
2024/04/18 08:11:38;;;;;;;4.55;1.80;;;;;;;;;;5370829;26;25053;-69
2024/04/18 08:14:04;;;;;;;6.65;2.28;;;;;;;;;;5372038;26;25129;-69
2024/04/18 08:16:30;;;;;;;8.32;1.77;;;;;;;;;;5369327;26;25146;-67
2024/04/18 08:18:56;;;;;;;7.57;1.98;;;;;;;;;;5368754;26;25068;-70
2024/04/18 08:21:22;;;;;;;4.55;2.05;;;;;;;;;;5371984;26;25057;-69
2024/04/18 08:23:51;;;;;;;6.10;1.60;;;;;;;;;;5358916;26;25065;-69
2024/04/18 08:26:17;;;;;;;8.75;2.17;;;;;;;;;;5378687;26;25091;-70
2024/04/18 08:28:43;;;;;;;3.45;1.70;;;;;;;;;;5368475;26;25064;-69
2024/04/18 08:31:09;;;;;;;6.35;2.10;;;;;;;;;;5361169;26;25040;-68
2024/04/18 08:33:35;;;;;;;7.75;1.60;;;;;;;;;;5365384;26;25059;-69
2024/04/18 08:36:01;;;;;;;1.63;1.20;;;;;;;;;;5370949;26;25058;-69
2024/04/18 08:38:27;;;;;;;4.43;1.60;;;;;;;;;;5376357;26;25055;-69
2024/04/18 08:40:53;;;;;;;2.63;1.58;;;;;;;;;;5373260;26;25061;-71
2024/04/18 08:43:19;;;;;;;2.90;1.40;;;;;;;;;;5366231;26;25037;-70
2024/04/18 08:45:46;;;;;;;4.80;1.60;;;;;;;;;;5374987;26;25044;-69
2024/04/18 08:48:12;;;;;;;4.53;2.35;;;;;;;;;;5375636;26;24887;-67
2024/04/18 08:50:41;;;;;;;8.25;1.95;;;;;;;;;;5373336;26;25060;-70
2024/04/18 08:53:07;;;;;;;3.22;1.80;;;;;;;;;;5369521;26;25044;-68
2024/04/18 08:55:35;;;;;;;3.22;1.60;;;;;;;;;;5380939;26;25049;-68
2024/04/18 08:58:10;;;;;;;4.88;1.67;;;;;;;;;;5371707;26;25060;-69
2024/04/18 09:00:41;;;;;;;3.05;1.20;;;;;;;;;;5367166;26;25058;-69
2024/04/18 09:03:07;;;;;;;4.55;1.20;;;;;;;;;;5368050;26;25035;-69
2024/04/18 09:05:33;;;;;;;2.35;1.02;;;;;;;;;;5370509;26;25079;-69
2024/04/18 09:08:00;;;;;;;4.22;1.25;;;;;;;;;;5371434;26;25074;-68
2024/04/18 09:10:29;;;;;;;4.70;1.08;;;;;;;;;;5368699;26;25047;-69
2024/04/18 09:12:55;;;;;;;2.72;1.13;;;;;;;;;;5359037;26;25050;-70
2024/04/18 09:15:22;;;;;;;2.92;1.27;;;;;;;;;;5371307;26;25052;-70
2024/04/18 09:18:00;;;;;;;7.95;1.65;;;;;;;;;;5373972;26;25075;-68
2024/04/18 09:20:26;;;;;;;6.50;1.90;;;;;;;;;;5367226;26;25043;-68
2024/04/18 09:22:53;;;;;;;5.70;1.40;;;;;;;;;;5374876;26;25047;-68
2024/04/18 09:25:20;;;;;;;6.68;2.22;;;;;;;;;;5374436;26;25081;-70
2024/04/18 09:27:47;;;;;;;1.48;1.10;;;;;;;;;;5366056;26;25052;-69
2024/04/18 09:30:14;;;;;;;3.47;1.60;;;;;;;;;;5367116;26;25112;-69
2024/04/18 09:32:41;;;;;;;3.72;1.40;;;;;;;;;;5370917;26;25047;-70
2024/04/18 09:35:08;;;;;;;3.28;1.50;;;;;;;;;;5373721;26;25040;-69
2024/04/18 09:37:34;;;;;;;2.92;1.13;;;;;;;;;;5373427;26;25074;-69
2024/04/18 09:40:01;;;;;;;7.15;1.40;;;;;;;;;;5370970;26;25067;-70
2024/04/18 09:42:37;;;;;;;5.85;1.60;;;;;;;;;;5370623;26;25045;-69
2024/04/18 09:45:05;;;;;;;10.02;1.67;;;;;;;;;;5362980;26;25083;-70
2024/04/18 09:47:32;;;;;;;5.95;2.00;;;;;;;;;;5374877;26;25110;-68
2024/04/18 09:49:59;;;;;;;3.50;1.48;;;;;;;;;;5370205;26;25045;-69
2024/04/18 09:52:25;;;;;;;2.72;1.75;;;;;;;;;;5395090;26;25073;-68
2024/04/18 09:54:51;;;;;;;8.52;1.83;;;;;;;;;;5394373;26;25038;-69
2024/04/18 09:57:18;;;;;;;9.77;2.10;;;;;;;;;;5392813;26;25046;-69
2024/04/18 09:59:44;;;;;;;3.35;1.80;;;;;;;;;;5393403;26;25115;-69
2024/04/18 10:02:12;;;;;;;2.85;1.40;;;;;;;;;;5385187;26;25061;-70
2024/04/18 10:04:39;;;;;;;2.78;1.38;;;;;;;;;;5377475;26;25056;-70
2024/04/18 10:07:08;;;;;;;4.85;1.40;;;;;;;;;;5375893;26;25057;-68
2024/04/18 10:09:35;;;;;;;6.38;1.27;;;;;;;;;;5374494;26;25037;-67
2024/04/18 10:12:01;;;;;;;6.68;1.33;;;;;;;;;;5371045;26;25066;-69
2024/04/18 10:14:28;;;;;;;3.30;1.05;;;;;;;;;;5375878;26;25057;-68
2024/04/18 10:16:54;;;;;;;5.70;1.08;;;;;;;;;;5376180;26;25078;-68
2024/04/18 10:19:23;;;;;;;9.30;1.63;;;;;;;;;;5373850;26;25041;-68
2024/04/18 10:21:50;;;;;;;7.85;1.42;;;;;;;;;;5374776;26;25038;-69
2024/04/18 10:24:18;;;;;;;4.63;0.90;;;;;;;;;;5383581;26;25018;-67
2024/04/18 10:26:44;;;;;;;3.08;0.93;;;;;;;;;;5379587;26;25060;-68
2024/04/18 10:29:26;;;;;;;4.50;1.20;;;;;;;;;;5372586;26;25063;-69
2024/04/18 10:31:55;;;;;;;5.07;1.10;;;;;;;;;;5373144;26;25041;-69
2024/04/18 10:34:23;;;;;;;5.15;0.95;;;;;;;;;;5371895;26;25034;-68
2024/04/18 10:36:49;;;;;;;4.40;1.50;;;;;;;;;;5373852;26;25060;-68
2024/04/18 10:39:31;;;;;;;6.00;1.27;;;;;;;;;;5365167;26;25115;-67
2024/04/18 10:42:10;;;;;;;4.27;1.20;;;;;;;;;;5359870;26;25049;-68
2024/04/18 10:44:37;;;;;;;3.50;1.17;;;;;;;;;;5365195;26;25050;-68
2024/04/18 10:47:04;;;;;;;5.43;1.20;;;;;;;;;;5374060;26;25045;-69
2024/04/18 10:49:30;;;;;;;4.78;1.10;;;;;;;;;;5373403;26;25095;-67
2024/04/18 10:51:58;;;;;;;5.50;1.73;;;;;;;;;;5378688;26;25078;-68
2024/04/18 10:54:24;;;;;;;4.75;1.08;;;;;;;;;;5363818;26;25057;-68
2024/04/18 10:56:50;;;;;;;5.30;1.08;;;;;;;;;;5370956;26;25043;-68
2024/04/18 10:59:16;;;;;;;7.90;1.60;;;;;;;;;;5375349;26;25051;-68
2024/04/18 11:01:42;;;;;;;4.22;1.10;;;;;;;;;;5369790;26;25056;-68
2024/04/18 11:04:10;;;;;;;4.05;1.20;;;;;;;;;;5365325;26;25047;-67
2024/04/18 11:06:39;;;;;;;3.75;0.80;;;;;;;;;;5371972;26;25027;-67
2024/04/18 11:09:05;;;;;;;3.95;1.40;;;;;;;;;;5372827;26;25090;-68
2024/04/18 11:11:33;;;;;;;7.60;1.02;;;;;;;;;;5376352;26;25047;-68
2024/04/18 11:14:00;;;;;;;7.65;1.38;;;;;;;;;;5371442;26;25111;-68
2024/04/18 11:16:26;;;;;;;6.68;1.40;;;;;;;;;;5366447;26;25035;-68
2024/04/18 11:18:55;;;;;;;2.88;1.20;;;;;;;;;;5368722;26;25049;-67
2024/04/18 11:21:22;;;;;;;2.75;0.80;;;;;;;;;;5366795;26;25072;-67
2024/04/18 11:23:51;;;;;;;1.48;0.75;;;;;;;;;;5372514;26;25070;-68
2024/04/18 11:26:21;;;;;;;5.43;1.08;;;;;;;;;;5371838;26;25064;-68
2024/04/18 11:28:50;;;;;;;2.05;0.93;;;;;;;;;;5372237;26;25088;-69
2024/04/18 11:31:16;;;;;;;6.30;1.50;;;;;;;;;;5372927;26;25033;-69
2024/04/18 11:33:43;;;;;;;2.25;0.77;;;;;;;;;;5374165;26;25064;-68
2024/04/18 11:36:09;;;;;;;3.40;0.80;;;;;;;;;;5372431;26;25070;-67
2024/04/18 11:38:35;;;;;;;6.10;1.20;;;;;;;;;;5372486;26;25054;-67
2024/04/18 11:41:01;;;;;;;5.30;0.90;;;;;;;;;;5371171;26;25073;-67
2024/04/18 11:43:27;;;;;;;7.35;1.05;;;;;;;;;;5375363;26;25055;-68
2024/04/18 11:45:53;;;;;;;4.72;1.25;;;;;;;;;;5368256;26;25048;-70
2024/04/18 11:48:19;;;;;;;2.15;0.70;;;;;;;;;;5372553;26;25046;-67
2024/04/18 11:50:45;;;;;;;3.70;1.13;;;;;;;;;;5366135;26;25059;-67
2024/04/18 11:53:11;;;;;;;1.77;0.80;;;;;;;;;;5371713;26;25048;-67
2024/04/18 11:55:37;;;;;;;2.22;0.90;;;;;;;;;;5370700;26;25036;-66
2024/04/18 11:58:03;;;;;;;1.73;0.95;;;;;;;;;;5368425;26;25160;-67
2024/04/18 12:00:35;;;;;;;1.63;0.63;;;;;;;;;;5371773;26;25043;-70
2024/04/18 12:03:01;;;;;;;;;;;;;;;;;;5371781;26;25065;-67
2024/04/18 12:05:27;;;;;;;3.40;1.00;;;;;;;;;;5365784;26;24042;-68
2024/04/18 12:07:53;;;;;;;2.20;0.82;;;;;;;;;;5374619;26;25043;-68
2024/04/18 12:10:20;;;;;;;3.60;1.20;;;;;;;;;;5364960;26;25062;-67
2024/04/18 12:12:46;;;;;;;11.73;1.00;;;;;;;;;;5369757;26;25062;-67
2024/04/18 12:15:12;;;;;;;2.92;0.90;;;;;;;;;;5376827;26;25067;-68
2024/04/18 12:17:38;;;;;;;2.63;1.15;;;;;;;;;;5397664;26;25113;-65
2024/04/18 12:20:04;;;;;;;3.38;0.90;;;;;;;;;;5387405;26;25105;-66
2024/04/18 12:22:31;;;;;;;5.57;0.75;;;;;;;;;;5389535;26;25039;-68
2024/04/18 12:24:57;;;;;;;2.38;1.13;;;;;;;;;;5385539;26;25056;-68
2024/04/18 12:27:23;;;;;;;10.07;3.13;;;;;;;;;;5372048;26;25033;-66
2024/04/18 12:29:49;;;;;;;2.85;1.10;;;;;;;;;;5368802;26;25066;-68
2024/04/18 12:32:20;;;;;;;1.85;0.75;;;;;;;;;;5370611;26;25064;-68
2024/04/18 12:34:46;;;;;;;2.78;1.27;;;;;;;;;;5361796;26;25076;-67
2024/04/18 12:37:12;;;;;;;2.33;1.08;;;;;;;;;;5358912;26;25035;-68
2024/04/18 12:39:39;;;;;;;4.28;0.93;;;;;;;;;;5377109;26;25070;-66
2024/04/18 12:42:05;;;;;;;1.85;0.60;;;;;;;;;;5371303;26;25056;-66
2024/04/18 12:44:31;;;;;;;6.43;1.05;;;;;;;;;;5369660;26;25065;-68
2024/04/18 12:46:57;;;;;;;2.95;0.70;;;;;;;;;;5360556;26;25046;-67
2024/04/18 12:49:23;;;;;;;8.23;1.20;;;;;;;;;;5371731;26;25055;-68
2024/04/18 12:51:49;;;;;;;1.65;0.65;;;;;;;;;;5366663;26;25001;-68
2024/04/18 12:54:15;;;;;;;3.25;0.65;;;;;;;;;;5366562;26;25062;-67
2024/04/18 12:56:41;;;;;;;8.10;0.80;;;;;;;;;;5372055;26;25050;-69
2024/04/18 12:59:07;;;;;;;14.43;2.05;;;;;;;;;;5372917;26;25055;-66
2024/04/18 13:01:33;;;;;;;5.40;1.02;;;;;;;;;;5372728;26;25108;-68
2024/04/18 13:04:01;;;;;;;4.32;0.85;;;;;;;;;;5376364;26;25126;-67
2024/04/18 13:06:27;;;;;;;3.38;0.93;;;;;;;;;;5369734;26;25041;-67
2024/04/18 13:08:54;;;;;;;8.45;1.13;;;;;;;;;;5363718;26;25044;-69
2024/04/18 13:11:19;;;;;;;2.20;0.75;;;;;;;;;;5377144;26;25091;-68
2024/04/18 13:13:45;;;;;;;3.03;1.05;;;;;;;;;;5367905;26;25068;-67
2024/04/18 13:16:12;;;;;;;3.25;0.60;;;;;;;;;;5362068;26;25061;-68
2024/04/18 13:18:38;;;;;;;1.55;0.70;;;;;;;;;;5372841;26;25038;-68
2024/04/18 13:21:04;;;;;;;1.40;0.70;;;;;;;;;;5376291;26;25059;-66
2024/04/18 13:23:30;;;;;;;2.72;0.88;;;;;;;;;;5374682;26;25056;-67
2024/04/18 13:25:56;;;;;;;4.95;0.90;;;;;;;;;;5379763;26;25063;-68
2024/04/18 13:28:22;;;;;;;5.22;1.08;;;;;;;;;;5376668;26;25042;-68
2024/04/18 13:30:48;;;;;;;3.40;1.15;;;;;;;;;;5373650;26;25031;-68
2024/04/18 13:33:13;;;;;;;2.08;0.68;;;;;;;;;;5374136;26;25113;-67
2024/04/18 13:35:39;;;;;;;4.80;0.98;;;;;;;;;;5361049;26;25100;-67
2024/04/18 13:38:06;;;;;;;4.72;1.02;;;;;;;;;;5358761;26;25057;-69
2024/04/18 13:40:31;;;;;;;4.82;1.00;;;;;;;;;;5367880;26;25040;-68
2024/04/18 13:43:01;;;;;;;4.95;0.80;;;;;;;;;;5378359;26;25131;-69
2024/04/18 13:45:29;;;;;;;4.18;1.13;;;;;;;;;;5377535;26;25084;-68
2024/04/18 13:47:55;;;;;;;2.88;0.70;;;;;;;;;;5365934;26;25045;-68
2024/04/18 13:50:21;;;;;;;3.92;1.10;;;;;;;;;;5368608;26;25105;-69
2024/04/18 13:52:47;;;;;;;3.40;0.80;;;;;;;;;;5369564;26;25046;-69
2024/04/18 13:55:13;;;;;;;1.70;0.70;;;;;;;;;;5363789;26;25042;-69
2024/04/18 13:57:39;;;;;;;3.38;1.08;;;;;;;;;;5369387;26;25038;-68
2024/04/18 14:00:05;;;;;;;2.72;0.70;;;;;;;;;;5371882;26;25072;-69
2024/04/18 14:02:31;;;;;;;1.75;0.77;;;;;;;;;;5374658;26;25064;-67
2024/04/18 14:04:57;;;;;;;2.25;0.80;;;;;;;;;;5373934;26;25062;-69
2024/04/18 14:07:23;;;;;;;4.30;1.05;;;;;;;;;;5373983;26;25113;-67
2024/04/18 14:09:49;;;;;;;5.03;0.90;;;;;;;;;;5373736;26;25101;-68
2024/04/18 14:12:15;;;;;;;4.72;1.38;;;;;;;;;;5363180;26;25058;-69
2024/04/18 14:14:41;;;;;;;5.78;0.98;;;;;;;;;;5373752;26;25032;-68
2024/04/18 14:19:52;;;;;;;1.90;1.20;;;;;;;;;;5372527;26;25047;-68
2024/04/18 14:22:18;;;;;;;2.28;1.15;;;;;;;;;;5365244;26;25061;-69
2024/04/18 14:24:44;;;;;;;3.47;1.10;;;;;;;;;;5363364;26;25059;-69
2024/04/18 14:27:10;;;;;;;5.88;1.13;;;;;;;;;;5376505;26;25045;-68
2024/04/18 14:29:36;;;;;;;2.53;1.00;;;;;;;;;;5363631;26;25061;-68
2024/04/18 14:32:01;;;;;;;4.43;0.90;;;;;;;;;;5368931;26;25055;-69
2024/04/18 14:34:27;;;;;;;5.20;1.08;;;;;;;;;;5373603;26;25045;-67
2024/04/18 14:36:53;;;;;;;3.33;1.00;;;;;;;;;;5379074;26;25042;-66